sensor_id;sensor_type;location;lat;lon;timestamp;P1;durP1;ratioP1;P2;durP2;ratioP2
63434;SDS011;68814;50.872;5.306;2023-07-24T00:01:05;12.05;;;4.30;;
63434;SDS011;68814;50.872;5.306;2023-07-24T00:03:30;8.93;;;4.38;;
63434;SDS011;68814;50.872;5.306;2023-07-24T00:05:59;8.43;;;4.32;;
63434;SDS011;68814;50.872;5.306;2023-07-24T00:08:24;9.07;;;4.95;;
63434;SDS011;68814;50.872;5.306;2023-07-24T00:10:50;10.13;;;4.55;;
63434;SDS011;68814;50.872;5.306;2023-07-24T00:13:15;15.43;;;5.00;;
63434;SDS011;68814;50.872;5.306;2023-07-24T00:15:41;13.32;;;4.72;;
63434;SDS011;68814;50.872;5.306;2023-07-24T00:18:07;10.05;;;4.50;;
63434;SDS011;68814;50.872;5.306;2023-07-24T00:20:33;12.50;;;5.15;;
63434;SDS011;68814;50.872;5.306;2023-07-24T00:22:58;15.80;;;4.95;;
63434;SDS011;68814;50.872;5.306;2023-07-24T00:25:24;13.05;;;4.55;;
63434;SDS011;68814;50.872;5.306;2023-07-24T00:27:49;10.60;;;4.65;;
63434;SDS011;68814;50.872;5.306;2023-07-24T00:30:15;12.25;;;4.53;;
63434;SDS011;68814;50.872;5.306;2023-07-24T00:32:41;8.50;;;4.72;;
63434;SDS011;68814;50.872;5.306;2023-07-24T00:35:06;11.82;;;4.57;;
63434;SDS011;68814;50.872;5.306;2023-07-24T00:37:33;15.40;;;4.82;;
63434;SDS011;68814;50.872;5.306;2023-07-24T00:39:58;11.43;;;4.70;;
63434;SDS011;68814;50.872;5.306;2023-07-24T00:42:24;13.48;;;5.25;;
63434;SDS011;68814;50.872;5.306;2023-07-24T00:44:50;15.90;;;5.45;;
63434;SDS011;68814;50.872;5.306;2023-07-24T00:47:15;8.02;;;3.95;;
63434;SDS011;68814;50.872;5.306;2023-07-24T00:49:42;10.48;;;4.45;;
63434;SDS011;68814;50.872;5.306;2023-07-24T00:52:08;12.85;;;4.47;;
63434;SDS011;68814;50.872;5.306;2023-07-24T00:54:33;9.00;;;4.40;;
63434;SDS011;68814;50.872;5.306;2023-07-24T00:56:59;11.60;;;5.25;;
63434;SDS011;68814;50.872;5.306;2023-07-24T00:59:26;14.07;;;5.60;;
63434;SDS011;68814;50.872;5.306;2023-07-24T01:01:52;8.85;;;4.72;;
63434;SDS011;68814;50.872;5.306;2023-07-24T01:04:18;13.02;;;5.13;;
63434;SDS011;68814;50.872;5.306;2023-07-24T01:06:44;13.73;;;5.45;;
63434;SDS011;68814;50.872;5.306;2023-07-24T01:09:10;11.98;;;4.82;;
63434;SDS011;68814;50.872;5.306;2023-07-24T01:11:37;13.18;;;4.68;;
63434;SDS011;68814;50.872;5.306;2023-07-24T01:14:27;9.13;;;4.78;;
63434;SDS011;68814;50.872;5.306;2023-07-24T01:16:57;11.75;;;4.63;;
63434;SDS011;68814;50.872;5.306;2023-07-24T01:22:19;12.80;;;4.82;;
63434;SDS011;68814;50.872;5.306;2023-07-24T01:25:00;11.88;;;4.20;;
63434;SDS011;68814;50.872;5.306;2023-07-24T01:27:26;16.52;;;4.32;;
63434;SDS011;68814;50.872;5.306;2023-07-24T01:29:52;11.30;;;4.13;;
63434;SDS011;68814;50.872;5.306;2023-07-24T01:32:18;15.88;;;4.20;;
63434;SDS011;68814;50.872;5.306;2023-07-24T01:34:44;8.43;;;5.10;;
63434;SDS011;68814;50.872;5.306;2023-07-24T01:37:11;12.98;;;4.63;;
63434;SDS011;68814;50.872;5.306;2023-07-24T01:39:38;13.23;;;4.28;;
63434;SDS011;68814;50.872;5.306;2023-07-24T01:42:05;14.68;;;5.65;;
63434;SDS011;68814;50.872;5.306;2023-07-24T01:44:32;15.52;;;4.80;;
63434;SDS011;68814;50.872;5.306;2023-07-24T01:46:57;12.32;;;3.92;;
63434;SDS011;68814;50.872;5.306;2023-07-24T01:49:23;18.50;;;5.32;;
63434;SDS011;68814;50.872;5.306;2023-07-24T01:51:48;11.60;;;4.22;;
63434;SDS011;68814;50.872;5.306;2023-07-24T01:54:14;9.30;;;4.72;;
63434;SDS011;68814;50.872;5.306;2023-07-24T01:56:39;11.55;;;4.65;;
63434;SDS011;68814;50.872;5.306;2023-07-24T01:59:05;14.65;;;5.40;;
63434;SDS011;68814;50.872;5.306;2023-07-24T02:01:31;7.88;;;4.55;;
63434;SDS011;68814;50.872;5.306;2023-07-24T02:03:57;12.73;;;4.80;;
63434;SDS011;68814;50.872;5.306;2023-07-24T02:06:22;13.57;;;5.57;;
63434;SDS011;68814;50.872;5.306;2023-07-24T02:08:48;15.85;;;5.40;;
63434;SDS011;68814;50.872;5.306;2023-07-24T02:11:16;10.93;;;5.18;;
63434;SDS011;68814;50.872;5.306;2023-07-24T02:13:45;13.40;;;4.68;;
63434;SDS011;68814;50.872;5.306;2023-07-24T02:16:11;13.10;;;4.95;;
63434;SDS011;68814;50.872;5.306;2023-07-24T02:18:38;11.90;;;6.22;;
63434;SDS011;68814;50.872;5.306;2023-07-24T02:21:05;15.40;;;5.90;;
63434;SDS011;68814;50.872;5.306;2023-07-24T02:23:31;9.73;;;4.85;;
63434;SDS011;68814;50.872;5.306;2023-07-24T02:25:56;14.73;;;5.35;;
63434;SDS011;68814;50.872;5.306;2023-07-24T02:28:22;7.63;;;4.75;;
63434;SDS011;68814;50.872;5.306;2023-07-24T02:30:48;12.50;;;4.90;;
63434;SDS011;68814;50.872;5.306;2023-07-24T02:33:14;9.32;;;4.93;;
63434;SDS011;68814;50.872;5.306;2023-07-24T02:35:40;12.35;;;5.43;;
63434;SDS011;68814;50.872;5.306;2023-07-24T02:38:06;16.42;;;5.38;;
63434;SDS011;68814;50.872;5.306;2023-07-24T02:40:32;9.40;;;5.13;;
63434;SDS011;68814;50.872;5.306;2023-07-24T02:42:58;11.10;;;4.82;;
63434;SDS011;68814;50.872;5.306;2023-07-24T02:45:24;10.10;;;4.82;;
63434;SDS011;68814;50.872;5.306;2023-07-24T02:47:50;11.13;;;5.25;;
63434;SDS011;68814;50.872;5.306;2023-07-24T02:50:15;9.30;;;4.70;;
63434;SDS011;68814;50.872;5.306;2023-07-24T02:52:41;10.77;;;5.43;;
63434;SDS011;68814;50.872;5.306;2023-07-24T02:55:07;12.77;;;5.07;;
63434;SDS011;68814;50.872;5.306;2023-07-24T02:57:32;9.98;;;5.05;;
63434;SDS011;68814;50.872;5.306;2023-07-24T02:59:58;11.82;;;5.47;;
63434;SDS011;68814;50.872;5.306;2023-07-24T03:02:24;11.35;;;5.53;;
63434;SDS011;68814;50.872;5.306;2023-07-24T03:04:49;17.73;;;5.53;;
63434;SDS011;68814;50.872;5.306;2023-07-24T03:07:15;14.35;;;5.75;;
63434;SDS011;68814;50.872;5.306;2023-07-24T03:09:41;14.00;;;5.60;;
63434;SDS011;68814;50.872;5.306;2023-07-24T03:12:06;12.95;;;5.70;;
63434;SDS011;68814;50.872;5.306;2023-07-24T03:14:32;9.63;;;5.43;;
63434;SDS011;68814;50.872;5.306;2023-07-24T03:16:58;11.50;;;5.50;;
63434;SDS011;68814;50.872;5.306;2023-07-24T03:19:23;11.27;;;5.65;;
63434;SDS011;68814;50.872;5.306;2023-07-24T03:21:49;17.92;;;6.03;;
63434;SDS011;68814;50.872;5.306;2023-07-24T03:24:14;12.77;;;5.93;;
63434;SDS011;68814;50.872;5.306;2023-07-24T03:26:41;12.02;;;5.18;;
63434;SDS011;68814;50.872;5.306;2023-07-24T03:29:06;12.95;;;5.05;;
63434;SDS011;68814;50.872;5.306;2023-07-24T03:31:32;12.13;;;5.20;;
63434;SDS011;68814;50.872;5.306;2023-07-24T03:33:57;8.88;;;5.10;;
63434;SDS011;68814;50.872;5.306;2023-07-24T03:36:23;7.45;;;5.05;;
63434;SDS011;68814;50.872;5.306;2023-07-24T03:38:48;13.15;;;5.68;;
63434;SDS011;68814;50.872;5.306;2023-07-24T03:41:14;10.77;;;5.50;;
63434;SDS011;68814;50.872;5.306;2023-07-24T03:43:39;12.32;;;5.43;;
63434;SDS011;68814;50.872;5.306;2023-07-24T03:46:05;10.00;;;5.18;;
63434;SDS011;68814;50.872;5.306;2023-07-24T03:48:31;10.02;;;5.22;;
63434;SDS011;68814;50.872;5.306;2023-07-24T03:50:59;8.30;;;5.43;;
63434;SDS011;68814;50.872;5.306;2023-07-24T03:53:26;8.75;;;4.97;;
63434;SDS011;68814;50.872;5.306;2023-07-24T03:55:52;10.02;;;4.68;;
63434;SDS011;68814;50.872;5.306;2023-07-24T03:58:18;8.88;;;5.18;;
63434;SDS011;68814;50.872;5.306;2023-07-24T04:00:44;10.45;;;4.28;;
63434;SDS011;68814;50.872;5.306;2023-07-24T04:03:09;7.75;;;4.93;;
63434;SDS011;68814;50.872;5.306;2023-07-24T04:05:35;8.45;;;4.30;;
63434;SDS011;68814;50.872;5.306;2023-07-24T04:08:01;10.70;;;4.68;;
63434;SDS011;68814;50.872;5.306;2023-07-24T04:10:28;11.93;;;4.40;;
63434;SDS011;68814;50.872;5.306;2023-07-24T04:12:54;9.55;;;5.53;;
63434;SDS011;68814;50.872;5.306;2023-07-24T04:15:19;10.85;;;4.72;;
63434;SDS011;68814;50.872;5.306;2023-07-24T04:17:45;8.13;;;4.75;;
63434;SDS011;68814;50.872;5.306;2023-07-24T04:20:11;10.32;;;5.20;;
63434;SDS011;68814;50.872;5.306;2023-07-24T04:22:36;10.07;;;5.07;;
63434;SDS011;68814;50.872;5.306;2023-07-24T04:25:02;11.98;;;6.07;;
63434;SDS011;68814;50.872;5.306;2023-07-24T04:27:28;9.15;;;4.82;;
63434;SDS011;68814;50.872;5.306;2023-07-24T04:29:54;11.90;;;5.25;;
63434;SDS011;68814;50.872;5.306;2023-07-24T04:32:19;10.18;;;5.13;;
63434;SDS011;68814;50.872;5.306;2023-07-24T04:34:45;10.38;;;4.60;;
63434;SDS011;68814;50.872;5.306;2023-07-24T04:37:10;8.50;;;4.55;;
63434;SDS011;68814;50.872;5.306;2023-07-24T04:39:38;10.45;;;4.57;;
63434;SDS011;68814;50.872;5.306;2023-07-24T04:42:04;8.07;;;4.70;;
63434;SDS011;68814;50.872;5.306;2023-07-24T04:44:30;6.90;;;3.75;;
63434;SDS011;68814;50.872;5.306;2023-07-24T04:46:57;6.18;;;3.80;;
63434;SDS011;68814;50.872;5.306;2023-07-24T04:49:23;9.82;;;3.88;;
63434;SDS011;68814;50.872;5.306;2023-07-24T04:51:49;7.38;;;3.85;;
63434;SDS011;68814;50.872;5.306;2023-07-24T04:54:15;6.65;;;3.28;;
63434;SDS011;68814;50.872;5.306;2023-07-24T04:56:41;6.57;;;3.67;;
63434;SDS011;68814;50.872;5.306;2023-07-24T04:59:07;6.30;;;3.63;;
63434;SDS011;68814;50.872;5.306;2023-07-24T05:01:32;6.70;;;4.22;;
63434;SDS011;68814;50.872;5.306;2023-07-24T05:03:58;5.88;;;3.13;;
63434;SDS011;68814;50.872;5.306;2023-07-24T05:06:24;7.18;;;3.58;;
63434;SDS011;68814;50.872;5.306;2023-07-24T05:08:49;10.15;;;3.90;;
63434;SDS011;68814;50.872;5.306;2023-07-24T05:11:15;6.50;;;3.40;;
63434;SDS011;68814;50.872;5.306;2023-07-24T05:13:40;6.90;;;3.33;;
63434;SDS011;68814;50.872;5.306;2023-07-24T05:16:06;4.55;;;2.97;;
63434;SDS011;68814;50.872;5.306;2023-07-24T05:18:32;5.70;;;2.75;;
63434;SDS011;68814;50.872;5.306;2023-07-24T05:20:57;5.00;;;2.60;;
63434;SDS011;68814;50.872;5.306;2023-07-24T05:23:23;4.90;;;2.97;;
63434;SDS011;68814;50.872;5.306;2023-07-24T05:25:55;4.82;;;2.55;;
63434;SDS011;68814;50.872;5.306;2023-07-24T05:28:23;5.63;;;2.88;;
63434;SDS011;68814;50.872;5.306;2023-07-24T05:30:50;3.55;;;2.22;;
63434;SDS011;68814;50.872;5.306;2023-07-24T05:33:17;5.15;;;2.53;;
63434;SDS011;68814;50.872;5.306;2023-07-24T05:35:42;4.63;;;2.53;;
63434;SDS011;68814;50.872;5.306;2023-07-24T05:38:08;4.20;;;2.30;;
63434;SDS011;68814;50.872;5.306;2023-07-24T05:40:34;3.65;;;2.30;;
63434;SDS011;68814;50.872;5.306;2023-07-24T05:43:00;4.05;;;2.28;;
63434;SDS011;68814;50.872;5.306;2023-07-24T05:45:26;4.30;;;2.28;;
63434;SDS011;68814;50.872;5.306;2023-07-24T05:47:52;5.72;;;3.38;;
63434;SDS011;68814;50.872;5.306;2023-07-24T05:50:18;6.65;;;2.33;;
63434;SDS011;68814;50.872;5.306;2023-07-24T05:52:44;6.32;;;2.95;;
63434;SDS011;68814;50.872;5.306;2023-07-24T05:55:10;4.90;;;2.90;;
63434;SDS011;68814;50.872;5.306;2023-07-24T05:57:35;10.07;;;2.90;;
63434;SDS011;68814;50.872;5.306;2023-07-24T06:00:02;7.07;;;2.70;;
63434;SDS011;68814;50.872;5.306;2023-07-24T06:02:29;4.65;;;2.70;;
63434;SDS011;68814;50.872;5.306;2023-07-24T06:04:55;5.47;;;2.60;;
63434;SDS011;68814;50.872;5.306;2023-07-24T06:07:20;4.25;;;2.45;;
63434;SDS011;68814;50.872;5.306;2023-07-24T06:09:46;8.05;;;2.90;;
63434;SDS011;68814;50.872;5.306;2023-07-24T06:12:11;7.93;;;2.88;;
63434;SDS011;68814;50.872;5.306;2023-07-24T06:14:37;4.90;;;2.13;;
63434;SDS011;68814;50.872;5.306;2023-07-24T06:17:03;7.18;;;2.72;;
63434;SDS011;68814;50.872;5.306;2023-07-24T06:19:29;5.55;;;2.13;;
63434;SDS011;68814;50.872;5.306;2023-07-24T06:21:54;7.45;;;2.30;;
63434;SDS011;68814;50.872;5.306;2023-07-24T06:24:20;3.35;;;2.00;;
63434;SDS011;68814;50.872;5.306;2023-07-24T06:26:45;2.42;;;1.95;;
63434;SDS011;68814;50.872;5.306;2023-07-24T06:29:11;5.65;;;2.20;;
63434;SDS011;68814;50.872;5.306;2023-07-24T06:31:37;6.20;;;2.50;;
63434;SDS011;68814;50.872;5.306;2023-07-24T06:34:02;4.07;;;2.40;;
63434;SDS011;68814;50.872;5.306;2023-07-24T06:36:28;6.68;;;2.67;;
63434;SDS011;68814;50.872;5.306;2023-07-24T06:38:53;2.85;;;1.83;;
63434;SDS011;68814;50.872;5.306;2023-07-24T06:41:19;4.82;;;2.20;;
63434;SDS011;68814;50.872;5.306;2023-07-24T06:43:46;4.55;;;2.25;;
63434;SDS011;68814;50.872;5.306;2023-07-24T06:46:11;4.88;;;2.17;;
63434;SDS011;68814;50.872;5.306;2023-07-24T06:48:37;4.90;;;1.80;;
63434;SDS011;68814;50.872;5.306;2023-07-24T06:51:03;4.53;;;2.22;;
63434;SDS011;68814;50.872;5.306;2023-07-24T06:53:28;6.00;;;2.05;;
63434;SDS011;68814;50.872;5.306;2023-07-24T06:55:54;4.88;;;2.03;;
63434;SDS011;68814;50.872;5.306;2023-07-24T06:58:20;6.30;;;2.30;;
63434;SDS011;68814;50.872;5.306;2023-07-24T07:00:45;3.97;;;2.05;;
63434;SDS011;68814;50.872;5.306;2023-07-24T07:03:11;4.07;;;2.40;;
63434;SDS011;68814;50.872;5.306;2023-07-24T07:05:36;4.57;;;2.30;;
63434;SDS011;68814;50.872;5.306;2023-07-24T07:08:02;3.65;;;2.22;;
63434;SDS011;68814;50.872;5.306;2023-07-24T07:10:27;2.67;;;1.70;;
63434;SDS011;68814;50.872;5.306;2023-07-24T07:12:53;2.40;;;1.35;;
63434;SDS011;68814;50.872;5.306;2023-07-24T07:15:20;1.60;;;1.30;;
63434;SDS011;68814;50.872;5.306;2023-07-24T07:17:45;1.67;;;1.00;;
63434;SDS011;68814;50.872;5.306;2023-07-24T07:20:11;2.00;;;0.98;;
63434;SDS011;68814;50.872;5.306;2023-07-24T07:22:36;2.20;;;1.05;;
63434;SDS011;68814;50.872;5.306;2023-07-24T07:25:02;1.48;;;1.35;;
63434;SDS011;68814;50.872;5.306;2023-07-24T07:27:28;2.67;;;1.23;;
63434;SDS011;68814;50.872;5.306;2023-07-24T07:29:53;2.33;;;1.23;;
63434;SDS011;68814;50.872;5.306;2023-07-24T07:32:19;2.20;;;1.40;;
63434;SDS011;68814;50.872;5.306;2023-07-24T07:34:44;1.65;;;1.00;;
63434;SDS011;68814;50.872;5.306;2023-07-24T07:37:10;3.65;;;1.17;;
63434;SDS011;68814;50.872;5.306;2023-07-24T07:39:35;1.13;;;1.02;;
63434;SDS011;68814;50.872;5.306;2023-07-24T07:42:01;2.13;;;1.40;;
63434;SDS011;68814;50.872;5.306;2023-07-24T07:44:27;1.88;;;1.30;;
63434;SDS011;68814;50.872;5.306;2023-07-24T07:46:52;3.20;;;1.00;;
63434;SDS011;68814;50.872;5.306;2023-07-24T07:49:18;2.40;;;1.30;;
63434;SDS011;68814;50.872;5.306;2023-07-24T07:51:44;3.03;;;1.40;;
63434;SDS011;68814;50.872;5.306;2023-07-24T07:54:09;4.22;;;1.20;;
63434;SDS011;68814;50.872;5.306;2023-07-24T07:56:35;5.03;;;1.40;;
63434;SDS011;68814;50.872;5.306;2023-07-24T07:59:01;1.67;;;1.27;;
63434;SDS011;68814;50.872;5.306;2023-07-24T08:01:26;3.15;;;1.80;;
63434;SDS011;68814;50.872;5.306;2023-07-24T08:03:52;3.42;;;1.60;;
63434;SDS011;68814;50.872;5.306;2023-07-24T08:06:17;2.60;;;1.80;;
63434;SDS011;68814;50.872;5.306;2023-07-24T08:08:43;3.05;;;1.63;;
63434;SDS011;68814;50.872;5.306;2023-07-24T08:11:08;4.47;;;1.52;;
63434;SDS011;68814;50.872;5.306;2023-07-24T08:13:34;3.05;;;2.13;;
63434;SDS011;68814;50.872;5.306;2023-07-24T08:16:00;3.22;;;2.10;;
63434;SDS011;68814;50.872;5.306;2023-07-24T08:18:28;4.75;;;1.88;;
63434;SDS011;68814;50.872;5.306;2023-07-24T08:20:56;4.60;;;2.30;;
63434;SDS011;68814;50.872;5.306;2023-07-24T08:23:22;3.60;;;2.13;;
63434;SDS011;68814;50.872;5.306;2023-07-24T08:25:51;2.67;;;2.10;;
63434;SDS011;68814;50.872;5.306;2023-07-24T08:28:20;4.63;;;2.17;;
63434;SDS011;68814;50.872;5.306;2023-07-24T08:30:46;4.40;;;1.83;;
63434;SDS011;68814;50.872;5.306;2023-07-24T08:33:21;4.30;;;1.85;;
63434;SDS011;68814;50.872;5.306;2023-07-24T08:35:47;3.67;;;1.90;;
63434;SDS011;68814;50.872;5.306;2023-07-24T08:38:22;6.38;;;2.38;;
63434;SDS011;68814;50.872;5.306;2023-07-24T08:40:49;3.75;;;2.10;;
63434;SDS011;68814;50.872;5.306;2023-07-24T08:43:24;3.22;;;1.92;;
63434;SDS011;68814;50.872;5.306;2023-07-24T08:45:50;4.45;;;2.13;;
63434;SDS011;68814;50.872;5.306;2023-07-24T08:48:16;4.65;;;2.00;;
63434;SDS011;68814;50.872;5.306;2023-07-24T08:50:44;3.40;;;1.92;;
63434;SDS011;68814;50.872;5.306;2023-07-24T08:53:11;2.92;;;1.90;;
63434;SDS011;68814;50.872;5.306;2023-07-24T08:55:38;7.15;;;2.10;;
63434;SDS011;68814;50.872;5.306;2023-07-24T08:58:04;4.07;;;2.10;;
63434;SDS011;68814;50.872;5.306;2023-07-24T09:00:32;4.18;;;1.95;;
63434;SDS011;68814;50.872;5.306;2023-07-24T09:02:57;3.40;;;1.70;;
63434;SDS011;68814;50.872;5.306;2023-07-24T09:05:23;4.03;;;2.42;;
63434;SDS011;68814;50.872;5.306;2023-07-24T09:07:48;4.25;;;2.30;;
63434;SDS011;68814;50.872;5.306;2023-07-24T09:10:14;3.60;;;2.47;;
63434;SDS011;68814;50.872;5.306;2023-07-24T09:12:41;5.15;;;1.75;;
63434;SDS011;68814;50.872;5.306;2023-07-24T09:15:07;4.57;;;1.63;;
63434;SDS011;68814;50.872;5.306;2023-07-24T09:17:33;2.10;;;1.60;;
63434;SDS011;68814;50.872;5.306;2023-07-24T09:19:59;3.33;;;1.75;;
63434;SDS011;68814;50.872;5.306;2023-07-24T09:22:26;2.83;;;1.92;;
63434;SDS011;68814;50.872;5.306;2023-07-24T09:24:52;4.82;;;2.10;;
63434;SDS011;68814;50.872;5.306;2023-07-24T09:27:19;2.60;;;1.42;;
63434;SDS011;68814;50.872;5.306;2023-07-24T09:29:46;4.75;;;2.20;;
63434;SDS011;68814;50.872;5.306;2023-07-24T09:32:27;2.45;;;1.70;;
63434;SDS011;68814;50.872;5.306;2023-07-24T09:34:53;2.88;;;2.08;;
63434;SDS011;68814;50.872;5.306;2023-07-24T09:37:26;4.30;;;2.00;;
63434;SDS011;68814;50.872;5.306;2023-07-24T09:39:58;3.40;;;1.80;;
63434;SDS011;68814;50.872;5.306;2023-07-24T09:44:57;8.63;;;2.77;;
63434;SDS011;68814;50.872;5.306;2023-07-24T09:47:23;4.38;;;2.15;;
63434;SDS011;68814;50.872;5.306;2023-07-24T09:49:49;4.45;;;2.30;;
63434;SDS011;68814;50.872;5.306;2023-07-24T09:52:17;4.80;;;2.40;;
63434;SDS011;68814;50.872;5.306;2023-07-24T09:54:49;4.72;;;2.78;;
63434;SDS011;68814;50.872;5.306;2023-07-24T09:57:44;4.50;;;3.13;;
63434;SDS011;68814;50.872;5.306;2023-07-24T10:00:11;4.43;;;3.03;;
63434;SDS011;68814;50.872;5.306;2023-07-24T10:02:37;3.45;;;1.77;;
63434;SDS011;68814;50.872;5.306;2023-07-24T10:05:04;2.90;;;0.73;;
63434;SDS011;68814;50.872;5.306;2023-07-24T10:07:31;3.80;;;0.60;;
63434;SDS011;68814;50.872;5.306;2023-07-24T10:09:57;0.40;;;0.38;;
63434;SDS011;68814;50.872;5.306;2023-07-24T10:12:23;3.17;;;0.43;;
63434;SDS011;68814;50.872;5.306;2023-07-24T10:14:52;0.35;;;0.20;;
63434;SDS011;68814;50.872;5.306;2023-07-24T10:17:39;0.50;;;0.40;;
63434;SDS011;68814;50.872;5.306;2023-07-24T10:20:06;1.60;;;0.40;;
63434;SDS011;68814;50.872;5.306;2023-07-24T10:22:40;3.03;;;0.55;;
63434;SDS011;68814;50.872;5.306;2023-07-24T10:25:07;1.00;;;0.30;;
63434;SDS011;68814;50.872;5.306;2023-07-24T10:27:39;0.20;;;0.20;;
63434;SDS011;68814;50.872;5.306;2023-07-24T10:30:09;1.75;;;0.30;;
63434;SDS011;68814;50.872;5.306;2023-07-24T10:32:44;0.73;;;0.35;;
63434;SDS011;68814;50.872;5.306;2023-07-24T10:35:14;0.85;;;0.30;;
63434;SDS011;68814;50.872;5.306;2023-07-24T10:37:41;1.55;;;0.30;;
63434;SDS011;68814;50.872;5.306;2023-07-24T10:40:07;0.45;;;0.30;;
63434;SDS011;68814;50.872;5.306;2023-07-24T10:42:44;1.00;;;0.35;;
63434;SDS011;68814;50.872;5.306;2023-07-24T10:45:10;2.28;;;0.40;;
63434;SDS011;68814;50.872;5.306;2023-07-24T10:47:36;0.68;;;0.30;;
63434;SDS011;68814;50.872;5.306;2023-07-24T10:50:02;0.60;;;0.30;;
63434;SDS011;68814;50.872;5.306;2023-07-24T10:52:31;0.47;;;0.30;;
63434;SDS011;68814;50.872;5.306;2023-07-24T10:55:01;1.30;;;0.50;;
63434;SDS011;68814;50.872;5.306;2023-07-24T10:57:30;3.97;;;0.77;;
63434;SDS011;68814;50.872;5.306;2023-07-24T10:59:56;0.68;;;0.40;;
63434;SDS011;68814;50.872;5.306;2023-07-24T11:02:22;0.73;;;0.63;;
63434;SDS011;68814;50.872;5.306;2023-07-24T11:04:48;1.05;;;0.88;;
63434;SDS011;68814;50.872;5.306;2023-07-24T11:07:14;1.10;;;0.80;;
63434;SDS011;68814;50.872;5.306;2023-07-24T11:09:40;0.80;;;0.60;;
63434;SDS011;68814;50.872;5.306;2023-07-24T11:12:12;2.13;;;0.95;;
63434;SDS011;68814;50.872;5.306;2023-07-24T11:14:49;2.92;;;1.90;;
63434;SDS011;68814;50.872;5.306;2023-07-24T11:17:15;2.28;;;1.48;;
63434;SDS011;68814;50.872;5.306;2023-07-24T11:19:41;3.63;;;1.25;;
63434;SDS011;68814;50.872;5.306;2023-07-24T11:22:07;1.88;;;1.60;;
63434;SDS011;68814;50.872;5.306;2023-07-24T11:24:41;2.22;;;1.90;;
63434;SDS011;68814;50.872;5.306;2023-07-24T11:27:08;3.85;;;1.80;;
63434;SDS011;68814;50.872;5.306;2023-07-24T11:29:38;3.03;;;1.65;;
63434;SDS011;68814;50.872;5.306;2023-07-24T11:32:04;1.85;;;1.40;;
63434;SDS011;68814;50.872;5.306;2023-07-24T11:34:31;2.35;;;1.50;;
63434;SDS011;68814;50.872;5.306;2023-07-24T11:36:57;5.40;;;1.75;;
63434;SDS011;68814;50.872;5.306;2023-07-24T11:39:24;3.45;;;1.65;;
63434;SDS011;68814;50.872;5.306;2023-07-24T11:41:49;1.20;;;1.10;;
63434;SDS011;68814;50.872;5.306;2023-07-24T11:44:15;2.58;;;1.60;;
63434;SDS011;68814;50.872;5.306;2023-07-24T11:46:42;2.35;;;1.40;;
63434;SDS011;68814;50.872;5.306;2023-07-24T11:49:08;2.72;;;1.92;;
63434;SDS011;68814;50.872;5.306;2023-07-24T11:51:39;1.90;;;1.63;;
63434;SDS011;68814;50.872;5.306;2023-07-24T11:54:07;2.25;;;1.63;;
63434;SDS011;68814;50.872;5.306;2023-07-24T11:56:36;3.72;;;1.52;;
63434;SDS011;68814;50.872;5.306;2023-07-24T11:59:14;2.53;;;1.58;;
63434;SDS011;68814;50.872;5.306;2023-07-24T12:01:40;3.53;;;1.70;;
63434;SDS011;68814;50.872;5.306;2023-07-24T12:04:10;1.67;;;1.30;;
63434;SDS011;68814;50.872;5.306;2023-07-24T12:06:37;2.45;;;1.70;;
63434;SDS011;68814;50.872;5.306;2023-07-24T12:09:03;4.05;;;1.63;;
63434;SDS011;68814;50.872;5.306;2023-07-24T12:11:33;2.40;;;1.95;;
63434;SDS011;68814;50.872;5.306;2023-07-24T12:13:59;6.05;;;1.95;;
63434;SDS011;68814;50.872;5.306;2023-07-24T12:16:24;2.42;;;1.80;;
63434;SDS011;68814;50.872;5.306;2023-07-24T12:18:50;2.38;;;1.80;;
63434;SDS011;68814;50.872;5.306;2023-07-24T12:21:15;3.13;;;1.95;;
63434;SDS011;68814;50.872;5.306;2023-07-24T12:23:41;2.20;;;1.70;;
63434;SDS011;68814;50.872;5.306;2023-07-24T12:26:07;2.75;;;1.58;;
63434;SDS011;68814;50.872;5.306;2023-07-24T12:28:32;4.15;;;1.98;;
63434;SDS011;68814;50.872;5.306;2023-07-24T12:30:58;5.55;;;1.85;;
63434;SDS011;68814;50.872;5.306;2023-07-24T12:33:24;1.67;;;1.58;;
63434;SDS011;68814;50.872;5.306;2023-07-24T12:35:50;2.45;;;1.23;;
63434;SDS011;68814;50.872;5.306;2023-07-24T12:38:16;2.35;;;1.23;;
63434;SDS011;68814;50.872;5.306;2023-07-24T12:40:42;4.13;;;1.40;;
63434;SDS011;68814;50.872;5.306;2023-07-24T12:43:08;2.28;;;1.40;;
63434;SDS011;68814;50.872;5.306;2023-07-24T12:45:33;2.55;;;1.42;;
63434;SDS011;68814;50.872;5.306;2023-07-24T12:47:59;2.83;;;1.75;;
63434;SDS011;68814;50.872;5.306;2023-07-24T12:50:25;2.38;;;1.60;;
63434;SDS011;68814;50.872;5.306;2023-07-24T12:52:50;4.07;;;2.03;;
63434;SDS011;68814;50.872;5.306;2023-07-24T12:55:16;2.15;;;1.92;;
63434;SDS011;68814;50.872;5.306;2023-07-24T12:57:42;3.70;;;1.92;;
63434;SDS011;68814;50.872;5.306;2023-07-24T13:00:08;2.85;;;1.90;;
63434;SDS011;68814;50.872;5.306;2023-07-24T13:02:34;3.15;;;1.67;;
63434;SDS011;68814;50.872;5.306;2023-07-24T13:04:59;3.80;;;2.20;;
63434;SDS011;68814;50.872;5.306;2023-07-24T13:07:25;2.78;;;1.77;;
63434;SDS011;68814;50.872;5.306;2023-07-24T13:09:51;3.50;;;1.90;;
63434;SDS011;68814;50.872;5.306;2023-07-24T13:12:16;4.53;;;2.25;;
63434;SDS011;68814;50.872;5.306;2023-07-24T13:14:42;2.72;;;1.30;;
63434;SDS011;68814;50.872;5.306;2023-07-24T13:17:08;2.00;;;1.77;;
63434;SDS011;68814;50.872;5.306;2023-07-24T13:19:34;2.92;;;1.83;;
63434;SDS011;68814;50.872;5.306;2023-07-24T13:22:00;3.05;;;1.60;;
63434;SDS011;68814;50.872;5.306;2023-07-24T13:24:25;5.03;;;1.70;;
63434;SDS011;68814;50.872;5.306;2023-07-24T13:26:51;3.05;;;1.65;;
63434;SDS011;68814;50.872;5.306;2023-07-24T13:29:17;3.58;;;1.67;;
63434;SDS011;68814;50.872;5.306;2023-07-24T13:31:42;2.22;;;1.50;;
63434;SDS011;68814;50.872;5.306;2023-07-24T13:34:08;4.85;;;1.95;;
63434;SDS011;68814;50.872;5.306;2023-07-24T13:36:33;3.40;;;1.83;;
63434;SDS011;68814;50.872;5.306;2023-07-24T13:38:59;2.45;;;1.67;;
63434;SDS011;68814;50.872;5.306;2023-07-24T13:41:25;2.17;;;1.25;;
63434;SDS011;68814;50.872;5.306;2023-07-24T13:43:50;2.35;;;1.40;;
63434;SDS011;68814;50.872;5.306;2023-07-24T13:46:16;3.83;;;1.73;;
63434;SDS011;68814;50.872;5.306;2023-07-24T13:48:41;1.67;;;1.42;;
63434;SDS011;68814;50.872;5.306;2023-07-24T13:51:07;3.17;;;1.65;;
63434;SDS011;68814;50.872;5.306;2023-07-24T13:53:33;2.05;;;1.52;;
63434;SDS011;68814;50.872;5.306;2023-07-24T13:55:58;2.88;;;2.08;;
63434;SDS011;68814;50.872;5.306;2023-07-24T13:58:24;4.07;;;2.13;;
63434;SDS011;68814;50.872;5.306;2023-07-24T14:00:49;3.88;;;2.40;;
63434;SDS011;68814;50.872;5.306;2023-07-24T14:03:15;4.35;;;2.92;;
63434;SDS011;68814;50.872;5.306;2023-07-24T14:05:41;3.05;;;2.10;;
63434;SDS011;68814;50.872;5.306;2023-07-24T14:08:06;5.10;;;2.30;;
63434;SDS011;68814;50.872;5.306;2023-07-24T14:10:32;3.35;;;2.40;;
63434;SDS011;68814;50.872;5.306;2023-07-24T14:12:58;3.55;;;2.38;;
63434;SDS011;68814;50.872;5.306;2023-07-24T14:15:24;3.35;;;2.70;;
63434;SDS011;68814;50.872;5.306;2023-07-24T14:17:49;5.10;;;2.72;;
63434;SDS011;68814;50.872;5.306;2023-07-24T14:20:15;4.07;;;2.58;;
63434;SDS011;68814;50.872;5.306;2023-07-24T14:22:40;3.45;;;2.80;;
63434;SDS011;68814;50.872;5.306;2023-07-24T14:25:06;5.03;;;2.47;;
63434;SDS011;68814;50.872;5.306;2023-07-24T14:27:32;4.75;;;2.70;;
63434;SDS011;68814;50.872;5.306;2023-07-24T14:29:58;3.00;;;2.42;;
63434;SDS011;68814;50.872;5.306;2023-07-24T14:32:23;4.30;;;2.30;;
63434;SDS011;68814;50.872;5.306;2023-07-24T14:34:50;3.25;;;2.30;;
63434;SDS011;68814;50.872;5.306;2023-07-24T14:37:16;4.25;;;2.70;;
63434;SDS011;68814;50.872;5.306;2023-07-24T14:39:42;3.33;;;2.42;;
63434;SDS011;68814;50.872;5.306;2023-07-24T14:42:09;5.03;;;2.65;;
63434;SDS011;68814;50.872;5.306;2023-07-24T14:44:36;7.68;;;3.10;;
63434;SDS011;68814;50.872;5.306;2023-07-24T14:47:01;9.60;;;2.83;;